createdAt,value
2022-10-10T04:30:55.809Z,9.90
2022-10-10T04:31:55.777Z,10.01
2022-10-10T04:32:55.764Z,10.01
2022-10-10T04:33:55.709Z,9.93
2022-10-10T04:34:55.693Z,9.99
2022-10-10T04:35:55.684Z,9.97
2022-10-10T04:36:55.666Z,9.96
2022-10-10T04:37:55.682Z,9.87
2022-10-10T04:38:55.676Z,9.94
2022-10-10T04:39:55.765Z,9.83
2022-10-10T04:40:55.622Z,9.87
2022-10-10T04:41:55.634Z,9.86
2022-10-10T04:42:55.615Z,9.84
2022-10-10T04:43:55.587Z,9.86
2022-10-10T04:44:55.672Z,9.86
2022-10-10T04:45:55.590Z,9.91
2022-10-10T04:46:55.596Z,9.83
2022-10-10T04:47:55.577Z,9.87
2022-10-10T04:48:55.593Z,9.87
2022-10-10T04:49:55.525Z,9.79
2022-10-10T04:50:55.634Z,9.84
2022-10-10T04:51:55.575Z,9.75
2022-10-10T04:52:55.541Z,9.79
2022-10-10T04:53:55.558Z,9.90
2022-10-10T04:54:55.499Z,9.79
2022-10-10T04:55:55.502Z,9.87
2022-10-10T04:56:55.501Z,9.78
2022-10-10T04:57:55.436Z,9.78
2022-10-10T04:58:55.453Z,9.69
2022-10-10T04:59:55.425Z,9.71
2022-10-10T05:00:55.446Z,9.66
2022-10-10T05:02:00.689Z,9.69
2022-10-10T05:02:56.446Z,9.76
2022-10-10T05:03:55.482Z,9.74
2022-10-10T05:04:55.385Z,9.71
2022-10-10T05:05:55.363Z,9.78
2022-10-10T05:06:55.450Z,9.65
2022-10-10T05:07:55.850Z,9.78
2022-10-10T05:08:55.322Z,9.68
2022-10-10T05:09:55.348Z,9.79
2022-10-10T05:10:55.315Z,9.74
2022-10-10T05:11:55.286Z,9.74
2022-10-10T05:12:55.345Z,9.68
2022-10-10T05:13:55.265Z,9.69
2022-10-10T05:14:55.271Z,9.74
2022-10-10T05:15:55.333Z,9.78
2022-10-10T05:16:55.240Z,9.72
2022-10-10T05:17:55.233Z,9.72
2022-10-10T05:18:55.248Z,9.69
2022-10-10T05:19:55.239Z,9.69
2022-10-10T05:20:57.675Z,9.68
2022-10-10T05:21:55.235Z,9.75
2022-10-10T05:22:55.215Z,9.76
2022-10-10T05:23:55.218Z,9.74
2022-10-10T05:24:55.177Z,9.69
2022-10-10T05:25:55.153Z,9.75
2022-10-10T05:26:55.176Z,9.72
2022-10-10T05:27:55.109Z,9.72
2022-10-10T05:28:55.114Z,9.66
2022-10-10T05:29:55.131Z,9.68
2022-10-10T05:30:55.090Z,9.69
2022-10-10T05:31:55.079Z,9.66
2022-10-10T05:32:55.130Z,9.76
2022-10-10T05:33:55.053Z,9.64
2022-10-10T05:34:55.203Z,9.64
2022-10-10T05:35:55.037Z,9.68
2022-10-10T05:36:55.031Z,9.69
2022-10-10T05:37:55.005Z,9.58
2022-10-10T05:38:55.027Z,9.54
2022-10-10T05:39:55.044Z,9.66
2022-10-10T05:40:55.022Z,9.46
2022-10-10T05:41:55.033Z,9.56
2022-10-10T05:42:54.992Z,9.47
2022-10-10T05:43:54.960Z,9.47
2022-10-10T05:44:55.021Z,9.53
2022-10-10T05:45:54.915Z,9.42
2022-10-10T05:46:54.911Z,9.47
2022-10-10T05:47:54.913Z,9.51
2022-10-10T05:48:54.960Z,9.39
2022-10-10T05:49:54.954Z,9.53
2022-10-10T05:50:54.892Z,9.46
2022-10-10T05:51:54.868Z,9.50
2022-10-10T05:52:54.999Z,9.54
2022-10-10T05:53:54.905Z,9.56
2022-10-10T05:54:54.915Z,9.51
2022-10-10T05:55:54.801Z,9.46
2022-10-10T05:56:54.820Z,9.53
2022-10-10T05:57:54.788Z,9.47
2022-10-10T05:58:54.861Z,9.50
2022-10-10T05:59:54.868Z,9.54
2022-10-10T06:00:55.398Z,9.50
2022-10-10T06:01:54.749Z,9.54
2022-10-10T06:02:55.336Z,9.56
2022-10-10T06:03:54.752Z,9.54
2022-10-10T06:04:54.794Z,9.56
2022-10-10T06:05:54.776Z,9.56
2022-10-10T06:06:54.800Z,9.57
2022-10-10T06:08:12.191Z,9.61
2022-10-10T06:08:55.675Z,9.69
2022-10-10T06:09:54.653Z,9.71
2022-10-10T06:10:54.720Z,9.79
2022-10-10T06:11:54.692Z,9.86
2022-10-10T06:12:54.709Z,9.86
2022-10-10T06:13:54.665Z,10.01
2022-10-10T06:14:54.610Z,9.93
2022-10-10T06:15:54.617Z,10.09
2022-10-10T06:16:54.603Z,10.04
2022-10-10T06:17:54.588Z,10.20
2022-10-10T06:18:54.592Z,10.30
2022-10-10T06:19:54.643Z,10.29
2022-10-10T06:20:54.553Z,10.34
2022-10-10T06:21:54.544Z,10.34
2022-10-10T06:22:54.557Z,10.42
2022-10-10T06:23:54.566Z,10.40
2022-10-10T06:24:54.566Z,10.42
2022-10-10T06:25:54.490Z,10.52
2022-10-10T06:26:54.493Z,10.47
2022-10-10T06:27:54.495Z,10.56
2022-10-10T06:28:54.456Z,10.56
2022-10-10T06:29:54.446Z,10.68
2022-10-10T06:30:54.446Z,10.67
2022-10-10T06:31:54.443Z,10.82
2022-10-10T06:32:56.823Z,10.76
2022-10-10T06:33:54.478Z,10.88
2022-10-10T06:34:54.410Z,10.97
2022-10-10T06:35:54.448Z,10.99
2022-10-10T06:36:54.366Z,10.94
2022-10-10T06:37:54.421Z,10.94
2022-10-10T06:38:54.424Z,10.94
2022-10-10T06:39:54.375Z,10.96
2022-10-10T06:40:58.480Z,11.00
2022-10-10T06:41:55.423Z,10.86
2022-10-10T06:42:54.643Z,11.02
2022-10-10T06:43:54.311Z,10.94
2022-10-10T06:44:54.291Z,10.97
2022-10-10T06:45:54.312Z,11.07
2022-10-10T06:46:54.270Z,11.06
2022-10-10T06:47:54.249Z,11.15
2022-10-10T06:48:54.284Z,11.10
2022-10-10T06:49:54.239Z,11.11
2022-10-10T06:50:54.220Z,11.09
2022-10-10T06:51:54.211Z,11.25
2022-10-10T06:52:54.248Z,11.39
2022-10-10T06:53:54.228Z,11.40
2022-10-10T06:54:54.204Z,11.57
2022-10-10T06:55:54.168Z,11.61
2022-10-10T06:56:54.178Z,11.69
2022-10-10T06:57:54.168Z,11.64
2022-10-10T06:58:54.315Z,11.69
2022-10-10T06:59:54.117Z,11.79
2022-10-10T07:00:54.104Z,11.67
2022-10-10T07:01:54.149Z,11.76
2022-10-10T07:02:54.348Z,11.83
2022-10-10T07:03:54.142Z,11.96
2022-10-10T07:04:54.158Z,12.01
2022-10-10T07:05:54.095Z,12.20
2022-10-10T07:06:54.056Z,12.20
2022-10-10T07:07:54.108Z,12.35
2022-10-10T07:08:54.050Z,12.39
2022-10-10T07:09:54.217Z,12.57
2022-10-10T07:10:54.070Z,12.60
2022-10-10T07:11:54.017Z,12.70
2022-10-10T07:12:54.297Z,12.82
2022-10-10T07:13:53.981Z,12.64
2022-10-10T07:14:54.003Z,12.62
2022-10-10T07:15:53.983Z,12.71
2022-10-10T07:16:54.073Z,12.89
2022-10-10T07:17:54.505Z,12.95
2022-10-10T07:18:53.939Z,12.92
2022-10-10T07:19:54.018Z,12.97
2022-10-10T07:20:53.941Z,13.08
2022-10-10T07:21:53.948Z,13.23
2022-10-10T07:22:54.162Z,13.25
2022-10-10T07:23:54.040Z,13.23
2022-10-10T07:24:54.090Z,13.25
2022-10-10T07:25:53.849Z,13.20
2022-10-10T07:26:59.618Z,13.32
2022-10-10T07:27:54.879Z,13.29
2022-10-10T07:28:53.828Z,13.30
2022-10-10T07:29:53.804Z,13.23
2022-10-10T07:30:53.802Z,13.26
2022-10-10T07:31:53.783Z,13.28
2022-10-10T07:32:53.998Z,13.26
2022-10-10T07:33:53.808Z,13.41
2022-10-10T07:34:53.778Z,13.66
2022-10-10T07:35:53.736Z,13.91
2022-10-10T07:36:53.726Z,14.03
2022-10-10T07:37:53.723Z,13.99
2022-10-10T07:38:53.743Z,14.00
2022-10-10T07:39:53.782Z,14.12
2022-10-10T07:40:53.685Z,14.21
2022-10-10T07:41:53.665Z,14.20
2022-10-10T07:42:53.981Z,13.99
2022-10-10T07:43:53.663Z,13.96
2022-10-10T07:44:53.701Z,14.02
2022-10-10T07:45:53.658Z,14.12
2022-10-10T07:46:53.634Z,14.09
2022-10-10T07:47:54.133Z,14.06
2022-10-10T07:48:53.587Z,14.04
2022-10-10T07:49:53.753Z,14.18
2022-10-10T07:50:53.604Z,14.33
2022-10-10T07:51:55.949Z,14.50
2022-10-10T07:52:53.548Z,14.72
2022-10-10T07:53:53.547Z,14.88
2022-10-10T07:54:53.660Z,15.11
2022-10-10T07:55:53.510Z,15.25
2022-10-10T07:56:53.537Z,15.29
2022-10-10T07:57:53.794Z,15.25
2022-10-10T07:58:53.491Z,15.02
2022-10-10T07:59:53.604Z,14.78
2022-10-10T08:00:53.506Z,14.92
2022-10-10T08:01:53.545Z,14.88
2022-10-10T08:02:53.458Z,15.09
2022-10-10T08:03:53.481Z,15.11
2022-10-10T08:04:53.434Z,15.11
2022-10-10T08:05:53.404Z,15.07
2022-10-10T08:06:53.421Z,15.02
2022-10-10T08:07:53.807Z,15.10
2022-10-10T08:08:53.400Z,15.19
2022-10-10T08:09:53.469Z,15.14
2022-10-10T08:10:53.380Z,15.27
2022-10-10T08:11:53.405Z,15.35
2022-10-10T08:12:53.419Z,15.20
2022-10-10T08:13:53.326Z,15.13
2022-10-10T08:14:53.354Z,15.35
2022-10-10T08:15:53.312Z,15.49
2022-10-10T08:16:53.315Z,15.54
2022-10-10T08:17:53.732Z,15.46
2022-10-10T08:18:53.269Z,15.53
2022-10-10T08:19:53.326Z,15.56
2022-10-10T08:20:53.238Z,15.59
2022-10-10T08:21:53.238Z,15.67
2022-10-10T08:22:53.466Z,15.69
2022-10-10T08:23:53.278Z,15.53
2022-10-10T08:24:53.287Z,15.32
2022-10-10T08:25:53.189Z,15.38
2022-10-10T08:26:53.218Z,15.41
2022-10-10T08:27:53.189Z,15.68
2022-10-10T08:28:53.232Z,15.75
2022-10-10T08:29:53.144Z,15.84
2022-10-10T08:30:53.192Z,15.92
2022-10-10T08:31:53.144Z,16.04
2022-10-10T08:32:53.363Z,16.15
2022-10-10T08:33:53.116Z,16.21
2022-10-10T08:34:53.097Z,16.30
2022-10-10T08:35:53.107Z,16.12
2022-10-10T08:36:53.102Z,16.21
2022-10-10T08:37:53.151Z,16.02
2022-10-10T08:38:53.054Z,16.24
2022-10-10T08:39:53.080Z,16.34
2022-10-10T08:40:53.042Z,16.45
2022-10-10T08:41:53.024Z,16.52
2022-10-10T08:42:53.478Z,16.67
2022-10-10T08:43:53.042Z,16.73
2022-10-10T08:44:53.039Z,16.67
2022-10-10T08:45:52.978Z,16.53
2022-10-10T08:46:52.987Z,16.58
2022-10-10T08:47:52.956Z,16.56
2022-10-10T08:48:52.994Z,16.58
2022-10-10T08:49:53.007Z,16.56
2022-10-10T08:50:52.981Z,16.64
2022-10-10T08:51:52.920Z,16.58
2022-10-10T08:52:53.516Z,16.67
2022-10-10T08:53:52.895Z,16.78
2022-10-10T08:54:58.138Z,16.88
2022-10-10T08:55:53.936Z,16.79
2022-10-10T08:56:52.936Z,16.75
2022-10-10T08:57:52.902Z,16.71
2022-10-10T08:58:52.856Z,16.81
2022-10-10T09:00:52.951Z,16.91
2022-10-10T09:02:17.590Z,17.03
2022-10-10T09:02:54.873Z,17.03
2022-10-10T09:03:52.775Z,16.83
2022-10-10T09:04:52.807Z,16.83
2022-10-10T09:05:52.784Z,16.70
2022-10-10T09:06:52.796Z,16.61
2022-10-10T09:07:52.740Z,16.75
2022-10-10T09:08:52.735Z,16.79
2022-10-10T09:09:52.718Z,16.79
2022-10-10T09:10:52.730Z,16.83
2022-10-10T09:11:52.695Z,17.07
2022-10-10T09:12:52.733Z,17.14
2022-10-10T09:13:52.707Z,17.16
2022-10-10T09:14:52.669Z,17.15
2022-10-10T09:15:52.662Z,17.14
2022-10-10T09:16:52.650Z,17.21
2022-10-10T09:17:52.648Z,16.96
2022-10-10T09:18:52.662Z,16.82
2022-10-10T09:19:52.612Z,16.78
2022-10-10T09:20:52.659Z,16.79
2022-10-10T09:21:52.586Z,16.71
2022-10-10T09:22:52.663Z,16.82
2022-10-10T09:23:52.611Z,16.85
2022-10-10T09:24:52.573Z,16.93
2022-10-10T09:25:52.544Z,16.91
2022-10-10T09:26:52.531Z,17.03
2022-10-10T09:27:52.584Z,17.14
2022-10-10T09:28:52.547Z,17.19
2022-10-10T09:29:52.497Z,17.38
2022-10-10T09:30:52.496Z,17.25
2022-10-10T09:31:52.543Z,17.15
2022-10-10T09:32:52.524Z,17.08
2022-10-10T09:33:52.515Z,17.07
2022-10-10T09:34:52.480Z,17.07
2022-10-10T09:35:52.433Z,17.07
2022-10-10T09:36:56.054Z,17.33
2022-10-10T09:37:53.459Z,17.30
2022-10-10T09:38:52.397Z,17.18
2022-10-10T09:39:52.426Z,17.18
2022-10-10T09:40:52.395Z,17.30
2022-10-10T09:41:52.435Z,17.33
2022-10-10T09:42:52.364Z,17.36
2022-10-10T09:43:52.397Z,17.52
2022-10-10T09:44:52.349Z,17.68
2022-10-10T09:45:52.350Z,17.92
2022-10-10T09:46:52.364Z,18.02
2022-10-10T09:47:52.317Z,18.11
2022-10-10T09:48:52.298Z,18.21
2022-10-10T09:49:52.399Z,18.29
2022-10-10T09:50:52.301Z,18.14
2022-10-10T09:51:52.290Z,17.99
2022-10-10T09:52:52.287Z,17.77
2022-10-10T09:53:52.346Z,17.74
2022-10-10T09:54:52.258Z,17.70
2022-10-10T09:55:52.285Z,17.79
2022-10-10T09:56:52.220Z,17.77
2022-10-10T09:57:52.209Z,17.97
2022-10-10T09:58:52.223Z,17.92
2022-10-10T09:59:52.187Z,17.58
2022-10-10T10:00:52.231Z,17.84
2022-10-10T10:01:52.182Z,17.81
2022-10-10T10:02:52.163Z,17.79
2022-10-10T10:03:56.396Z,17.66
2022-10-10T10:04:53.208Z,17.62
2022-10-10T10:05:52.101Z,17.59
2022-10-10T10:06:52.194Z,17.74
2022-10-10T10:07:52.083Z,17.84
2022-10-10T10:08:52.105Z,18.11
2022-10-10T10:09:52.116Z,18.32
2022-10-10T10:10:52.118Z,18.47
2022-10-10T10:11:52.054Z,18.47
2022-10-10T10:12:52.042Z,18.37
2022-10-10T10:13:52.014Z,18.47
2022-10-10T10:14:52.009Z,18.66
2022-10-10T10:15:52.091Z,18.75
2022-10-10T10:16:52.017Z,18.65
2022-10-10T10:17:51.972Z,18.51
2022-10-10T10:18:51.968Z,18.75
2022-10-10T10:19:51.988Z,18.82
2022-10-10T10:20:51.943Z,18.91
2022-10-10T10:21:51.968Z,19.14
2022-10-10T10:23:51.926Z,19.10
2022-10-10T10:24:51.924Z,19.18
2022-10-10T10:25:51.885Z,19.22
2022-10-10T10:26:51.882Z,19.33
2022-10-10T10:27:51.913Z,19.39
2022-10-10T10:28:51.986Z,19.47
2022-10-10T10:29:51.859Z,19.36
2022-10-10T10:30:51.834Z,19.46
2022-10-10T10:31:51.855Z,19.50
2022-10-10T10:32:51.850Z,19.61
2022-10-10T10:33:51.806Z,19.50
2022-10-10T10:34:51.869Z,19.54
2022-10-10T10:35:51.804Z,19.61
2022-10-10T10:36:51.770Z,19.65
2022-10-10T10:37:51.784Z,19.56
2022-10-10T10:38:51.789Z,19.68
2022-10-10T10:39:51.880Z,19.81
2022-10-10T10:40:51.741Z,19.87
2022-10-10T10:41:51.715Z,19.96
2022-10-10T10:42:51.705Z,19.98
2022-10-10T10:43:51.842Z,20.08
2022-10-10T10:44:51.680Z,20.11
2022-10-10T10:45:51.696Z,19.95
2022-10-10T10:46:51.681Z,19.98
2022-10-10T10:47:51.647Z,19.65
2022-10-10T10:48:51.675Z,19.40
2022-10-10T10:49:51.688Z,19.46
2022-10-10T10:50:51.640Z,19.66
2022-10-10T10:51:51.618Z,19.76
2022-10-10T10:52:58.264Z,19.55
2022-10-10T10:53:51.585Z,19.36
2022-10-10T10:54:51.704Z,19.39
2022-10-10T10:55:51.601Z,19.29
2022-10-10T10:56:51.558Z,19.25
2022-10-10T11:00:25.562Z,19.36
2022-10-10T11:01:24.296Z,19.39
2022-10-10T11:01:56.808Z,19.37
2022-10-10T11:02:59.534Z,19.44
2022-10-10T11:05:18.612Z,19.63
2022-10-10T11:05:20.538Z,19.73
2022-10-10T11:05:52.632Z,19.76
2022-10-10T11:07:16.821Z,19.80
2022-10-10T11:07:52.494Z,19.66
2022-10-10T11:08:51.438Z,19.76
2022-10-10T11:09:51.456Z,19.86
2022-10-10T11:10:51.421Z,19.69
2022-10-10T11:11:51.403Z,19.61
2022-10-10T11:12:51.429Z,19.74
2022-10-10T11:13:51.426Z,19.59
2022-10-10T11:14:51.358Z,19.63
2022-10-10T11:16:06.014Z,19.71
2022-10-10T11:16:52.338Z,19.78
2022-10-10T11:17:51.325Z,19.78
2022-10-10T11:18:51.330Z,19.99
2022-10-10T11:19:51.323Z,19.81
2022-10-10T11:20:51.296Z,19.91
2022-10-10T11:21:51.283Z,19.88
2022-10-10T11:22:51.357Z,19.98
2022-10-10T11:23:51.263Z,20.02
2022-10-10T11:24:51.337Z,20.08
2022-10-10T11:25:51.313Z,19.99
2022-10-10T11:26:51.239Z,19.86
2022-10-10T11:27:51.208Z,19.80
2022-10-10T11:28:51.289Z,19.77
2022-10-10T11:29:51.297Z,19.77
2022-10-10T11:30:51.185Z,19.86
2022-10-10T11:31:51.216Z,19.91
2022-10-10T11:32:51.155Z,19.88
2022-10-10T11:33:51.160Z,19.86
2022-10-10T11:34:51.158Z,19.88
2022-10-10T11:35:51.124Z,19.98
2022-10-10T11:36:51.144Z,19.99
2022-10-10T11:37:51.161Z,20.08
2022-10-10T11:38:51.112Z,19.92
2022-10-10T11:39:51.175Z,19.92
2022-10-10T11:40:51.095Z,19.78
2022-10-10T11:41:51.114Z,19.76
2022-10-10T11:42:51.166Z,19.69
2022-10-10T11:43:51.067Z,19.66
2022-10-10T11:44:51.031Z,19.62
2022-10-10T11:45:54.631Z,19.58
2022-10-10T11:46:51.040Z,19.51
2022-10-10T11:47:51.020Z,19.50
2022-10-10T11:48:51.017Z,19.47
2022-10-10T11:49:51.010Z,19.33
2022-10-10T11:50:50.970Z,19.25
2022-10-10T11:51:50.967Z,19.16
2022-10-10T11:52:50.964Z,19.19
2022-10-10T11:53:50.922Z,19.14
2022-10-10T11:54:50.990Z,19.07
2022-10-10T11:55:50.908Z,19.19
2022-10-10T11:56:50.897Z,19.28
2022-10-10T11:57:50.919Z,19.23
2022-10-10T11:58:51.027Z,19.36
2022-10-10T11:59:50.899Z,19.41
2022-10-10T12:00:50.849Z,19.36
2022-10-10T12:01:51.044Z,19.41
2022-10-10T12:02:50.850Z,19.44
2022-10-10T12:03:50.836Z,19.51
2022-10-10T12:04:50.879Z,19.51
2022-10-10T12:05:50.845Z,19.65
2022-10-10T12:06:50.811Z,19.55
2022-10-10T12:07:50.848Z,19.68
2022-10-10T12:08:50.782Z,19.71
2022-10-10T12:09:50.756Z,19.62
2022-10-10T12:10:50.763Z,19.71
2022-10-10T12:11:50.950Z,19.73
2022-10-10T12:12:50.813Z,19.78
2022-10-10T12:13:50.720Z,19.61
2022-10-10T12:14:50.718Z,19.54
2022-10-10T12:15:50.734Z,19.65
2022-10-10T12:16:50.690Z,19.66
2022-10-10T12:17:50.721Z,19.63
2022-10-10T12:18:50.683Z,19.58
2022-10-10T12:19:50.760Z,19.46
2022-10-10T12:20:50.659Z,19.44
2022-10-10T12:21:50.642Z,19.43
2022-10-10T12:22:50.718Z,19.48
2022-10-10T12:23:50.598Z,19.50
2022-10-10T12:24:50.602Z,19.69
2022-10-10T12:25:50.581Z,19.71
2022-10-10T12:26:50.605Z,19.76
2022-10-10T12:27:50.591Z,19.83
2022-10-10T12:28:50.660Z,19.80
2022-10-10T12:29:51.445Z,19.77
2022-10-10T12:30:53.548Z,19.87
2022-10-10T12:31:51.544Z,19.83
2022-10-10T12:32:50.521Z,19.77
2022-10-10T12:33:50.515Z,19.73
2022-10-10T12:34:50.562Z,19.73
2022-10-10T12:35:50.543Z,19.78
2022-10-10T12:36:50.481Z,19.74
2022-10-10T12:37:50.480Z,19.69
2022-10-10T12:38:50.460Z,19.65
2022-10-10T12:39:50.480Z,19.71
2022-10-10T12:40:50.445Z,19.77
2022-10-10T12:41:50.491Z,19.74
2022-10-10T12:42:50.429Z,19.74
2022-10-10T12:43:50.394Z,19.86
2022-10-10T12:44:50.390Z,19.76
2022-10-10T12:45:50.399Z,19.84
2022-10-10T12:46:50.401Z,19.81
2022-10-10T12:48:05.035Z,19.80
2022-10-10T12:48:51.334Z,19.91
2022-10-10T12:49:50.323Z,19.86
2022-10-10T12:50:50.363Z,19.99
2022-10-10T12:51:50.359Z,20.01
2022-10-10T12:52:50.342Z,20.02
2022-10-10T12:53:50.299Z,20.08
2022-10-10T12:54:50.262Z,20.08
2022-10-10T12:55:50.253Z,20.17
2022-10-10T12:56:50.281Z,20.26
2022-10-10T12:57:50.255Z,20.28
2022-10-10T12:58:50.233Z,20.16
2022-10-10T12:59:50.211Z,20.11
2022-10-10T13:00:50.214Z,20.13
2022-10-10T13:01:50.252Z,20.14
2022-10-10T13:02:50.233Z,20.03
2022-10-10T13:03:50.201Z,19.96
2022-10-10T13:04:50.211Z,19.91
2022-10-10T13:05:50.167Z,19.92
2022-10-10T13:06:50.165Z,19.92
2022-10-10T13:07:50.150Z,19.91
2022-10-10T13:08:50.150Z,19.94
2022-10-10T13:09:50.138Z,19.88
2022-10-10T13:10:50.108Z,19.96
2022-10-10T13:11:50.095Z,19.80
2022-10-10T13:12:50.076Z,19.86
2022-10-10T13:13:50.089Z,19.96
2022-10-10T13:14:50.070Z,19.86
2022-10-10T13:15:50.064Z,19.84
2022-10-10T13:16:50.063Z,19.83
2022-10-10T13:17:50.045Z,19.88
2022-10-10T13:18:50.027Z,19.77
2022-10-10T13:19:50.005Z,19.78
2022-10-10T13:20:49.990Z,19.80
2022-10-10T13:21:49.981Z,19.91
2022-10-10T13:22:50.014Z,19.88
2022-10-10T13:24:50.972Z,19.92
2022-10-10T13:25:49.935Z,19.87
2022-10-10T13:26:49.925Z,19.92
2022-10-10T13:27:49.907Z,19.84
2022-10-10T13:28:49.952Z,19.87
2022-10-10T13:29:49.900Z,19.96
2022-10-10T13:30:49.877Z,19.92
2022-10-10T13:31:49.898Z,19.96
2022-10-10T13:32:49.864Z,19.96
2022-10-10T13:33:49.988Z,20.02
2022-10-10T13:34:49.859Z,19.98
2022-10-10T13:35:49.849Z,20.03
2022-10-10T13:36:49.823Z,19.99
2022-10-10T13:37:49.838Z,20.01
2022-10-10T13:38:49.802Z,20.02
2022-10-10T13:39:49.781Z,19.94
2022-10-10T13:40:49.775Z,19.88
2022-10-10T13:41:49.774Z,19.87
2022-10-10T13:42:49.768Z,19.87
2022-10-10T13:43:49.800Z,19.86
2022-10-10T13:44:49.765Z,19.80
2022-10-10T13:45:49.750Z,19.78
2022-10-10T13:46:49.703Z,19.77
2022-10-10T13:47:49.713Z,19.77
2022-10-10T13:48:49.688Z,19.74
2022-10-10T13:49:49.695Z,19.77
2022-10-10T13:50:53.376Z,19.83
2022-10-10T13:51:49.664Z,19.86
2022-10-10T13:52:49.678Z,19.87
2022-10-10T13:53:49.650Z,19.87
2022-10-10T13:54:49.625Z,19.98
2022-10-10T13:55:49.654Z,20.02
2022-10-10T13:56:49.635Z,19.95
2022-10-10T13:57:49.629Z,19.84
2022-10-10T13:58:49.728Z,19.83
2022-10-10T13:59:49.614Z,19.95
2022-10-10T14:00:49.558Z,19.84
2022-10-10T14:01:49.665Z,19.98
2022-10-10T14:02:49.569Z,19.87
2022-10-10T14:03:49.595Z,19.92
2022-10-10T14:04:49.532Z,19.94
2022-10-10T14:05:49.525Z,19.99
2022-10-10T14:06:49.519Z,20.05
2022-10-10T14:07:49.501Z,20.01
2022-10-10T14:08:49.473Z,19.98
2022-10-10T14:09:53.376Z,19.98
2022-10-10T14:10:49.459Z,19.96
2022-10-10T14:11:49.473Z,19.96
2022-10-10T14:12:49.441Z,19.98
2022-10-10T14:13:49.419Z,19.99
2022-10-10T14:14:49.410Z,19.96
2022-10-10T14:15:49.396Z,19.99
2022-10-10T14:16:49.425Z,19.99
2022-10-10T14:17:49.413Z,19.95
2022-10-10T14:18:49.387Z,20.05
2022-10-10T14:19:49.400Z,19.96
2022-10-10T14:20:49.347Z,19.96
2022-10-10T14:21:49.336Z,19.92
2022-10-10T14:22:49.343Z,19.87
2022-10-10T14:23:49.349Z,19.88
2022-10-10T14:24:49.309Z,19.87
2022-10-10T14:25:49.329Z,19.86
2022-10-10T14:26:49.280Z,19.87
2022-10-10T14:27:49.291Z,19.86
2022-10-10T14:28:49.403Z,19.84
2022-10-10T14:29:49.263Z,19.78
2022-10-10T14:30:49.250Z,19.78
2022-10-10T14:31:49.228Z,19.81
2022-10-10T14:32:49.215Z,19.68
2022-10-10T14:33:49.204Z,19.63
2022-10-10T14:34:49.235Z,19.68
2022-10-10T14:35:49.182Z,19.65
2022-10-10T14:36:49.207Z,19.63
2022-10-10T14:37:49.187Z,19.62
2022-10-10T14:38:49.169Z,19.62
2022-10-10T14:39:49.166Z,19.62
2022-10-10T14:40:49.125Z,19.62
2022-10-10T14:41:49.160Z,19.73
2022-10-10T14:42:49.150Z,19.69
2022-10-10T14:43:49.133Z,19.77
2022-10-10T14:44:49.084Z,19.66
2022-10-10T14:45:49.086Z,19.69
2022-10-10T14:46:49.103Z,19.78
2022-10-10T14:47:49.090Z,19.73
2022-10-10T14:48:49.046Z,19.80
2022-10-10T14:49:49.039Z,19.76
2022-10-10T14:50:49.032Z,19.80
2022-10-10T14:51:49.053Z,19.73
2022-10-10T14:52:48.996Z,19.69
2022-10-10T14:54:10.917Z,19.80
2022-10-10T14:54:49.999Z,19.76
2022-10-10T14:55:51.376Z,19.68
2022-10-10T14:57:08.488Z,19.74
2022-10-10T14:57:49.957Z,19.69
2022-10-10T14:58:48.951Z,19.65
2022-10-10T14:59:50.178Z,19.71
2022-10-10T15:00:48.936Z,19.71
2022-10-10T15:01:48.958Z,19.74
2022-10-10T15:02:48.962Z,19.62
2022-10-10T15:03:48.890Z,19.62
2022-10-10T15:04:48.902Z,19.63
2022-10-10T15:05:48.874Z,19.61
2022-10-10T15:07:12.041Z,19.61
2022-10-10T15:07:49.863Z,19.65
2022-10-10T15:08:48.887Z,19.65
2022-10-10T15:10:27.517Z,19.63
2022-10-10T15:10:49.878Z,19.62
2022-10-10T15:11:48.795Z,19.59
2022-10-10T15:12:48.794Z,19.54
2022-10-10T15:13:48.781Z,19.56
2022-10-10T15:14:48.795Z,19.59
2022-10-10T15:15:48.753Z,19.44
2022-10-10T15:16:48.750Z,19.46
2022-10-10T15:17:48.743Z,19.46
2022-10-10T15:18:54.256Z,19.39
2022-10-10T15:19:49.706Z,19.39
2022-10-10T15:20:48.712Z,19.36
2022-10-10T15:21:48.695Z,19.23
2022-10-10T15:22:48.703Z,19.28
2022-10-10T15:23:48.676Z,19.16
2022-10-10T15:24:48.689Z,19.16
2022-10-10T15:25:48.724Z,19.07
2022-10-10T15:26:48.666Z,19.08
2022-10-10T15:27:48.635Z,18.99
2022-10-10T15:28:48.763Z,18.94
2022-10-10T15:29:48.638Z,18.95
2022-10-10T15:30:48.607Z,18.85
2022-10-10T15:31:48.625Z,18.87
2022-10-10T15:32:48.578Z,18.81
2022-10-10T15:33:48.577Z,18.75
2022-10-10T15:34:48.594Z,18.69
2022-10-10T15:36:08.512Z,18.78
2022-10-10T15:36:49.538Z,18.63
2022-10-10T15:37:48.541Z,18.63
2022-10-10T15:38:48.507Z,18.57
2022-10-10T15:39:48.513Z,18.54
2022-10-10T15:40:48.506Z,18.48
2022-10-10T15:41:48.484Z,18.48
2022-10-10T15:42:48.500Z,18.42
2022-10-10T15:43:48.483Z,18.42
2022-10-10T15:44:48.449Z,18.42
2022-10-10T15:45:55.935Z,18.37
2022-10-10T15:46:49.435Z,18.35
2022-10-10T15:47:48.418Z,18.32
2022-10-10T15:48:48.426Z,18.33
2022-10-10T15:49:48.394Z,18.32
2022-10-10T15:50:48.444Z,18.26
2022-10-10T15:51:48.396Z,18.20
2022-10-10T15:52:48.405Z,18.21
2022-10-10T15:53:48.377Z,18.21
2022-10-10T15:54:48.340Z,18.11
2022-10-10T15:55:48.321Z,18.17
2022-10-10T15:56:48.341Z,18.17
2022-10-10T15:57:48.327Z,18.14
2022-10-10T15:58:48.325Z,18.11
2022-10-10T15:59:48.352Z,18.10
2022-10-10T16:00:48.358Z,18.05
2022-10-10T16:01:48.267Z,18.07
2022-10-10T16:02:48.287Z,18.02
2022-10-10T16:03:48.257Z,18.00
2022-10-10T16:04:48.226Z,17.99
2022-10-10T16:05:48.246Z,17.95
2022-10-10T16:06:54.220Z,17.90
2022-10-10T16:07:49.218Z,17.84
2022-10-10T16:08:55.704Z,17.92
2022-10-10T16:09:49.195Z,17.96
2022-10-10T16:10:48.182Z,17.96
2022-10-10T16:11:48.159Z,17.97
2022-10-10T16:12:48.136Z,17.97
2022-10-10T16:13:48.130Z,18.02
2022-10-10T16:14:48.128Z,17.99
2022-10-10T16:15:48.156Z,18.00
2022-10-10T16:16:48.126Z,18.00
2022-10-10T16:17:48.143Z,17.97
2022-10-10T16:18:48.081Z,17.96
2022-10-10T16:19:48.120Z,17.99
2022-10-10T16:20:48.065Z,18.03
2022-10-10T16:21:48.058Z,17.95
2022-10-10T16:22:48.042Z,17.92
2022-10-10T16:23:48.032Z,17.92
2022-10-10T16:25:10.171Z,17.82
2022-10-10T16:25:49.004Z,17.99
2022-10-10T16:26:48.013Z,17.99
2022-10-10T16:27:47.984Z,17.89
2022-10-10T16:28:48.062Z,17.93
2022-10-10T16:29:47.964Z,17.96
2022-10-10T16:30:47.993Z,17.93
2022-10-10T16:31:47.958Z,17.79
2022-10-10T16:32:47.927Z,17.86
2022-10-10T16:33:47.937Z,17.78
2022-10-10T16:34:47.900Z,17.84
2022-10-10T16:35:47.907Z,17.77
2022-10-10T16:36:47.926Z,17.79
2022-10-10T16:37:47.923Z,17.81
2022-10-10T16:38:47.896Z,17.84
2022-10-10T16:39:47.880Z,17.79
2022-10-10T16:40:47.836Z,17.72
2022-10-10T16:41:48.984Z,17.78
2022-10-10T16:42:47.836Z,17.77
2022-10-10T16:43:47.818Z,17.78
2022-10-10T16:44:48.775Z,17.79
2022-10-10T16:45:47.801Z,17.70
2022-10-10T16:46:47.801Z,17.74
2022-10-10T16:47:48.339Z,17.59
2022-10-10T16:48:47.756Z,17.59
2022-10-10T16:49:47.743Z,17.55
2022-10-10T16:50:47.801Z,17.52
2022-10-10T16:51:47.714Z,17.49
2022-10-10T16:52:47.725Z,17.51
2022-10-10T16:53:47.752Z,17.54
2022-10-10T16:54:51.828Z,17.48
2022-10-10T16:55:47.756Z,17.52
2022-10-10T16:56:47.688Z,17.46
2022-10-10T16:57:47.649Z,17.55
2022-10-10T16:58:47.659Z,17.44
2022-10-10T16:59:47.660Z,17.51
2022-10-10T17:00:47.670Z,17.54
2022-10-10T17:01:47.635Z,17.49
2022-10-10T17:02:47.645Z,17.38
2022-10-10T17:03:47.807Z,17.41
2022-10-10T17:04:47.606Z,17.31
2022-10-10T17:05:47.568Z,17.49
2022-10-10T17:06:47.559Z,17.38
2022-10-10T17:07:47.590Z,17.43
2022-10-10T17:08:47.761Z,17.48
2022-10-10T17:09:47.519Z,17.49
2022-10-10T17:10:47.524Z,17.48
2022-10-10T17:11:51.213Z,17.48
2022-10-10T17:12:47.491Z,17.51
2022-10-10T17:13:47.485Z,17.55
2022-10-10T17:14:47.480Z,17.43
2022-10-10T17:15:47.461Z,17.41
2022-10-10T17:17:17.366Z,17.41
2022-10-10T17:17:48.441Z,17.46
2022-10-10T17:18:47.490Z,17.48
2022-10-10T17:19:47.432Z,17.36
2022-10-10T17:20:47.584Z,17.43
2022-10-10T17:21:47.418Z,17.31
2022-10-10T17:22:47.404Z,17.31
2022-10-10T17:23:47.383Z,17.31
2022-10-10T17:24:47.378Z,17.33
2022-10-10T17:25:47.518Z,17.36
2022-10-10T17:26:47.352Z,17.30
2022-10-10T17:27:47.371Z,17.28
2022-10-10T17:28:47.388Z,17.30
2022-10-10T17:29:47.317Z,17.30
2022-10-10T17:30:47.377Z,17.33